createdAt,value
2024-04-11T00:00:27.811Z,53.18
2024-04-11T00:03:18.755Z,53.10
2024-04-11T00:06:05.858Z,53.45
2024-04-11T00:09:20.201Z,53.56
2024-04-11T00:11:47.516Z,53.00
2024-04-11T00:18:26.367Z,53.97
2024-04-11T00:21:19.631Z,53.83
2024-04-11T00:24:26.258Z,53.92
2024-04-11T00:27:37.214Z,54.17
2024-04-11T00:30:05.341Z,54.26
2024-04-11T00:33:01.059Z,54.11
2024-04-11T00:36:20.231Z,54.41
2024-04-11T00:38:50.910Z,54.74
2024-04-11T00:41:21.323Z,54.51
2024-04-11T00:47:30.398Z,54.67
2024-04-11T00:49:58.449Z,54.37
2024-04-11T00:57:17.263Z,54.37
2024-04-11T00:59:49.170Z,54.60
2024-04-11T01:02:57.184Z,54.49
2024-04-11T01:05:28.817Z,54.65
2024-04-11T01:07:56.989Z,54.69
2024-04-11T01:10:25.027Z,54.64
2024-04-11T01:13:07.804Z,54.67
2024-04-11T01:15:40.920Z,54.71
2024-04-11T01:18:09.121Z,55.24
2024-04-11T01:23:30.780Z,55.98
2024-04-11T01:27:07.060Z,56.34
2024-04-11T01:33:51.978Z,55.82
2024-04-11T01:36:19.942Z,55.79
2024-04-11T01:43:47.174Z,55.84
2024-04-11T01:46:23.429Z,55.98
2024-04-11T01:48:53.571Z,55.38
2024-04-11T01:51:21.497Z,55.86
2024-04-11T01:53:48.989Z,55.69
2024-04-11T01:56:19.814Z,54.92
2024-04-11T01:59:43.313Z,54.75
2024-04-11T02:02:11.209Z,54.70
2024-04-11T02:05:11.129Z,54.86
2024-04-11T02:08:15.207Z,54.88
2024-04-11T02:15:36.061Z,55.11
2024-04-11T02:18:40.576Z,55.33
2024-04-11T02:21:46.319Z,55.59
2024-04-11T02:24:19.622Z,55.54
2024-04-11T02:27:51.163Z,55.33
2024-04-11T02:30:18.953Z,55.25
2024-04-11T02:32:46.492Z,55.55
2024-04-11T02:35:27.878Z,55.69
2024-04-11T02:46:16.601Z,55.79
2024-04-11T02:59:24.143Z,55.41
2024-04-11T03:01:58.643Z,55.44
2024-04-11T03:04:26.171Z,55.57
2024-04-11T03:06:54.068Z,55.91
2024-04-11T03:10:00.131Z,56.07
2024-04-11T03:13:06.149Z,55.79
2024-04-11T03:15:33.593Z,55.78
2024-04-11T03:18:05.372Z,55.58
2024-04-11T03:20:32.792Z,55.57
2024-04-11T03:23:01.198Z,55.96
2024-04-11T03:25:50.771Z,55.96
2024-04-11T03:28:19.427Z,55.74
2024-04-11T03:30:54.430Z,55.58
2024-04-11T03:33:52.009Z,55.80
2024-04-11T03:36:41.644Z,56.00
2024-04-11T03:40:03.151Z,56.14
2024-04-11T03:42:30.671Z,56.04
2024-04-11T03:45:12.462Z,56.19
2024-04-11T03:47:54.812Z,56.39
2024-04-11T03:50:29.287Z,56.59
2024-04-11T03:52:58.005Z,56.34
2024-04-11T03:55:25.761Z,56.54
2024-04-11T03:57:53.161Z,56.51
2024-04-11T04:03:00.135Z,56.53
2024-04-11T04:05:34.349Z,56.90
2024-04-11T04:08:07.948Z,56.78
2024-04-11T04:10:35.820Z,56.67
2024-04-11T04:13:05.153Z,56.83
2024-04-11T04:15:33.386Z,56.86
2024-04-11T04:18:52.396Z,57.37
2024-04-11T04:21:27.681Z,57.17
2024-04-11T04:24:04.566Z,57.28
2024-04-11T04:27:02.270Z,57.82
2024-04-11T04:29:29.709Z,57.55
2024-04-11T04:35:07.540Z,57.33
2024-04-11T04:37:35.983Z,57.16
2024-04-11T04:40:08.462Z,57.21
2024-04-11T04:42:37.886Z,56.56
2024-04-11T04:45:06.135Z,56.81
2024-04-11T04:47:36.489Z,56.07
2024-04-11T04:50:04.486Z,56.23
2024-04-11T04:52:32.217Z,55.45
2024-04-11T04:55:02.752Z,55.01
2024-04-11T04:57:33.233Z,54.90
2024-04-11T05:00:05.273Z,55.32
2024-04-11T05:02:37.066Z,54.43
2024-04-11T05:05:05.238Z,52.64
2024-04-11T05:07:33.041Z,51.55
2024-04-11T05:10:01.018Z,48.68
2024-04-11T05:12:44.595Z,46.90
2024-04-11T05:22:14.807Z,42.41
2024-04-11T05:24:42.101Z,40.52
2024-04-11T05:27:11.306Z,39.44
2024-04-11T05:30:02.780Z,39.53
2024-04-11T05:32:30.917Z,38.82
2024-04-11T05:34:58.232Z,39.23
2024-04-11T05:37:25.859Z,40.21
2024-04-11T05:39:53.257Z,39.92
2024-04-11T05:42:57.364Z,41.18
2024-04-11T05:45:35.372Z,42.55
2024-04-11T05:48:07.749Z,42.85
2024-04-11T05:50:54.227Z,44.53
2024-04-11T05:53:22.393Z,45.32
2024-04-11T06:01:02.387Z,45.38
2024-04-11T06:03:33.197Z,45.16
2024-04-11T06:06:00.884Z,45.44
2024-04-11T06:08:52.396Z,45.39
2024-04-11T06:11:21.038Z,45.32
2024-04-11T06:17:10.730Z,46.06
2024-04-11T06:19:55.037Z,45.58
2024-04-11T06:22:28.208Z,46.31
2024-04-11T06:27:33.898Z,46.19
2024-04-11T06:30:21.101Z,46.24
2024-04-11T06:32:49.677Z,45.50
2024-04-11T06:35:21.161Z,45.79
2024-04-11T06:38:13.688Z,45.77
2024-04-11T06:40:48.997Z,45.94
2024-04-11T06:43:17.758Z,46.36
2024-04-11T06:45:45.906Z,46.05
2024-04-11T06:48:20.687Z,45.91
2024-04-11T06:50:57.515Z,45.61
2024-04-11T06:56:43.065Z,46.07
2024-04-11T06:59:18.721Z,46.28
2024-04-11T07:02:01.947Z,46.50
2024-04-11T07:04:31.240Z,46.51
2024-04-11T07:07:10.119Z,46.48
2024-04-11T07:09:59.291Z,46.38
2024-04-11T07:15:13.677Z,46.06
2024-04-11T07:17:58.177Z,45.46
2024-04-11T07:20:52.018Z,45.69
2024-04-11T07:26:13.807Z,46.92
2024-04-11T07:28:46.783Z,47.33
2024-04-11T07:33:53.571Z,47.90
2024-04-11T07:36:42.970Z,46.38
2024-04-11T07:39:11.296Z,46.97
2024-04-11T07:41:50.994Z,46.02
2024-04-11T07:44:43.059Z,45.05
2024-04-11T07:47:16.685Z,45.05
2024-04-11T07:52:47.439Z,45.35
2024-04-11T07:55:16.189Z,45.02
2024-04-11T07:57:43.820Z,44.53
2024-04-11T08:00:31.410Z,44.29
2024-04-11T08:03:19.246Z,44.40
2024-04-11T08:08:23.122Z,44.33
2024-04-11T08:10:51.868Z,44.32
2024-04-11T08:13:23.525Z,43.85
2024-04-11T08:21:12.628Z,43.09
2024-04-11T08:23:44.509Z,42.96
2024-04-11T08:26:14.550Z,43.56
2024-04-11T08:28:44.936Z,43.61
2024-04-11T08:31:15.319Z,43.22
2024-04-11T08:33:44.014Z,43.04
2024-04-11T08:36:16.090Z,43.45
2024-04-11T08:38:45.286Z,43.33
2024-04-11T08:41:38.319Z,43.17
2024-04-11T08:44:10.144Z,43.14
2024-04-11T08:46:59.894Z,42.96
2024-04-11T08:49:50.158Z,42.50
2024-04-11T08:52:52.573Z,42.29
2024-04-11T08:55:28.536Z,42.96
2024-04-11T08:58:03.546Z,42.99
2024-04-11T09:01:18.497Z,42.35
2024-04-11T09:06:34.282Z,42.41
2024-04-11T09:14:49.438Z,42.65
2024-04-11T09:17:22.299Z,42.04
2024-04-11T09:20:36.533Z,41.50
2024-04-11T09:23:30.092Z,41.50
2024-04-11T09:26:01.599Z,41.30
2024-04-11T09:28:32.490Z,42.90
2024-04-11T09:31:01.537Z,42.30
2024-04-11T09:36:06.082Z,40.92
2024-04-11T09:38:42.900Z,40.43
2024-04-11T09:41:25.130Z,41.23
2024-04-11T09:47:02.525Z,40.68
2024-04-11T09:52:13.231Z,41.86
2024-04-11T09:54:41.254Z,41.47
2024-04-11T09:57:13.702Z,41.05
2024-04-11T10:03:30.722Z,40.99
2024-04-11T10:06:18.519Z,40.69
2024-04-11T10:08:54.525Z,39.99
2024-04-11T10:11:23.720Z,41.12
2024-04-11T10:13:56.897Z,41.14
2024-04-11T10:16:34.826Z,41.19
2024-04-11T10:19:07.948Z,40.88
2024-04-11T10:24:38.249Z,40.74
2024-04-11T10:27:13.080Z,40.49
2024-04-11T10:30:07.935Z,40.27
2024-04-11T10:32:38.478Z,39.61
2024-04-11T10:35:09.192Z,39.98
2024-04-11T10:37:41.626Z,39.42
2024-04-11T10:40:17.583Z,40.15
2024-04-11T10:46:21.561Z,40.28
2024-04-11T10:48:50.306Z,40.33
2024-04-11T10:51:29.298Z,40.49
2024-04-11T10:54:12.685Z,40.61
2024-04-11T10:56:47.976Z,40.70
2024-04-11T10:59:28.091Z,40.02
2024-04-11T11:02:07.140Z,40.59
2024-04-11T11:04:36.430Z,40.94
2024-04-11T11:07:11.563Z,41.24
2024-04-11T11:12:34.310Z,40.57
2024-04-11T11:15:12.491Z,39.96
2024-04-11T11:18:04.672Z,39.88
2024-04-11T11:20:32.943Z,40.62
2024-04-11T11:23:00.781Z,40.08
2024-04-11T11:25:34.171Z,39.98
2024-04-11T11:31:23.652Z,40.52
2024-04-11T11:33:51.626Z,40.66
2024-04-11T11:36:18.993Z,40.41
2024-04-11T11:42:31.424Z,39.96
2024-04-11T11:45:07.370Z,40.11
2024-04-11T11:47:47.348Z,39.93
2024-04-11T11:50:39.378Z,39.71
2024-04-11T11:59:07.292Z,39.33
2024-04-11T12:01:59.404Z,39.11
2024-04-11T12:07:10.503Z,38.75
2024-04-11T12:09:44.346Z,38.57
2024-04-11T12:12:18.388Z,38.30
2024-04-11T12:14:45.845Z,38.82
2024-04-11T12:17:24.944Z,38.50
2024-04-11T12:19:53.645Z,38.69
2024-04-11T12:22:24.110Z,39.47
2024-04-11T12:25:12.558Z,39.66
2024-04-11T12:27:44.997Z,39.32
2024-04-11T12:30:12.423Z,39.36
2024-04-11T12:32:43.275Z,39.08
2024-04-11T12:35:10.898Z,39.04
2024-04-11T12:37:55.495Z,38.91
2024-04-11T12:40:35.709Z,38.83
2024-04-11T12:43:11.762Z,39.19
2024-04-11T12:45:54.316Z,39.31
2024-04-11T12:51:21.604Z,39.18
2024-04-11T12:53:49.320Z,39.17
2024-04-11T12:56:38.322Z,38.83
2024-04-11T12:59:35.404Z,38.68
2024-04-11T13:02:37.430Z,38.74
2024-04-11T13:11:25.411Z,38.61
2024-04-11T13:14:16.312Z,39.17
2024-04-11T13:17:04.359Z,41.65
2024-04-11T13:22:53.957Z,39.18
2024-04-11T13:25:59.400Z,38.74
2024-04-11T13:34:10.269Z,38.77
2024-04-11T13:48:03.327Z,38.95
2024-04-11T13:50:44.375Z,39.02
2024-04-11T13:53:15.664Z,39.24
2024-04-11T13:55:57.509Z,39.20
2024-04-11T13:58:25.066Z,39.15
2024-04-11T14:01:04.933Z,39.18
2024-04-11T14:03:54.548Z,39.42
2024-04-11T14:06:40.493Z,39.24
2024-04-11T14:09:11.744Z,39.21
2024-04-11T14:11:43.925Z,39.38
2024-04-11T14:14:55.567Z,40.72
2024-04-11T14:17:32.468Z,39.56
2024-04-11T14:20:20.696Z,39.48
2024-04-11T14:23:15.350Z,39.78
2024-04-11T14:28:56.510Z,39.61
2024-04-11T14:34:03.536Z,39.68
2024-04-11T14:36:31.700Z,39.98
2024-04-11T14:39:07.131Z,40.10
2024-04-11T14:41:37.270Z,39.99
2024-04-11T14:44:19.975Z,40.22
2024-04-11T14:46:49.354Z,40.12
2024-04-11T14:49:19.489Z,40.03
2024-04-11T14:51:59.299Z,39.77
2024-04-11T14:54:29.419Z,40.25
2024-04-11T14:57:01.049Z,40.05
2024-04-11T15:00:01.494Z,40.04
2024-04-11T15:02:32.447Z,40.06
2024-04-11T15:05:21.181Z,40.18
2024-04-11T15:07:52.459Z,40.22
2024-04-11T15:10:19.857Z,40.20
2024-04-11T15:12:51.640Z,40.19
2024-04-11T15:15:25.156Z,40.37
2024-04-11T15:18:43.455Z,41.52
2024-04-11T15:27:17.612Z,40.62
2024-04-11T15:32:50.193Z,40.91
2024-04-11T15:35:41.025Z,40.94
2024-04-11T15:38:14.392Z,41.02
2024-04-11T15:43:58.752Z,41.03
2024-04-11T15:46:33.091Z,41.15
2024-04-11T15:49:08.827Z,41.27
2024-04-11T15:51:41.594Z,41.37
2024-04-11T15:54:51.010Z,41.36
2024-04-11T15:57:55.720Z,41.68
2024-04-11T16:00:29.241Z,41.71
2024-04-11T16:03:04.402Z,41.65
2024-04-11T16:05:36.205Z,41.80
2024-04-11T16:08:25.390Z,41.91
2024-04-11T16:11:21.425Z,41.73
2024-04-11T16:14:10.521Z,41.76
2024-04-11T16:17:03.369Z,41.59
2024-04-11T16:19:53.405Z,41.59
2024-04-11T16:22:26.946Z,42.06
2024-04-11T16:25:07.893Z,42.23
2024-04-11T16:27:38.030Z,42.69
2024-04-11T16:30:31.660Z,42.92
2024-04-11T16:36:20.603Z,42.92
2024-04-11T16:41:44.527Z,43.17
2024-04-11T16:44:25.373Z,43.04
2024-04-11T16:46:56.673Z,43.58
2024-04-11T16:49:46.771Z,43.57
2024-04-11T16:52:18.526Z,43.52
2024-04-11T16:58:11.341Z,43.56
2024-04-11T17:03:20.361Z,43.79
2024-04-11T17:06:28.460Z,44.26
2024-04-11T17:21:33.300Z,44.87
2024-04-11T17:26:43.114Z,45.08
2024-04-11T17:29:10.895Z,45.38
2024-04-11T17:32:13.639Z,45.29
2024-04-11T17:34:47.748Z,45.43
2024-04-11T17:37:41.282Z,45.75
2024-04-11T17:40:29.044Z,45.74
2024-04-11T17:42:59.385Z,45.85
2024-04-11T17:45:38.649Z,46.06
2024-04-11T17:48:11.896Z,45.95
2024-04-11T17:50:41.161Z,46.09
2024-04-11T17:53:18.763Z,46.22
2024-04-11T17:55:54.675Z,46.47
2024-04-11T17:58:42.881Z,46.55
2024-04-11T18:01:15.367Z,46.75
2024-04-11T18:03:43.290Z,46.56
2024-04-11T18:06:15.861Z,46.74
2024-04-11T18:08:54.164Z,46.96
2024-04-11T18:11:21.735Z,46.95
2024-04-11T18:13:50.434Z,46.98
2024-04-11T18:16:39.851Z,47.06
2024-04-11T18:19:17.491Z,47.35
2024-04-11T18:22:04.347Z,47.44
2024-04-11T18:34:55.051Z,48.46
2024-04-11T18:38:01.555Z,49.08
2024-04-11T18:40:30.925Z,48.91
2024-04-11T18:46:30.449Z,49.10
2024-04-11T18:49:19.296Z,49.05
2024-04-11T18:55:01.904Z,48.99
2024-04-11T19:00:45.551Z,49.21
2024-04-11T19:04:11.748Z,49.28
2024-04-11T19:06:50.819Z,49.25
2024-04-11T19:12:47.610Z,49.54
2024-04-11T19:15:17.538Z,49.50
2024-04-11T19:17:54.619Z,49.77
2024-04-11T19:20:23.566Z,49.88
2024-04-11T19:22:57.883Z,49.83
2024-04-11T19:25:29.180Z,49.95
2024-04-11T19:28:24.701Z,50.28
2024-04-11T19:30:57.398Z,50.58
2024-04-11T19:33:35.423Z,50.52
2024-04-11T19:36:37.324Z,50.49
2024-04-11T19:39:07.657Z,50.52
2024-04-11T19:41:51.918Z,50.74
2024-04-11T19:44:51.554Z,50.87
2024-04-11T19:47:27.830Z,50.70
2024-04-11T19:50:30.499Z,51.07
2024-04-11T19:53:38.319Z,51.22
2024-04-11T19:56:38.000Z,51.30
2024-04-11T19:59:13.527Z,51.36
2024-04-11T20:01:49.495Z,51.30
2024-04-11T20:07:27.848Z,51.59
2024-04-11T20:09:57.237Z,51.77
2024-04-11T20:12:50.469Z,51.61
2024-04-11T20:15:28.732Z,51.60
2024-04-11T20:17:57.973Z,51.90
2024-04-11T20:20:32.166Z,51.79
2024-04-11T20:23:01.868Z,51.69
2024-04-11T20:25:29.319Z,51.87
2024-04-11T20:28:19.318Z,51.98
2024-04-11T20:30:56.568Z,51.96
2024-04-11T20:33:33.868Z,52.03
2024-04-11T20:39:45.101Z,52.23
2024-04-11T20:45:47.284Z,52.51
2024-04-11T20:51:45.314Z,52.66
2024-04-11T20:55:05.876Z,52.79
2024-04-11T20:57:56.253Z,52.98
2024-04-11T21:00:45.568Z,53.20
2024-04-11T21:06:31.319Z,53.13
2024-04-11T21:09:32.265Z,53.49
2024-04-11T21:12:19.488Z,53.75
2024-04-11T21:14:58.428Z,53.89
2024-04-11T21:17:49.385Z,53.73
2024-04-11T21:31:21.786Z,53.46
2024-04-11T21:38:24.340Z,53.65
2024-04-11T21:45:17.230Z,53.71
2024-04-11T21:51:00.824Z,53.89
2024-04-11T21:53:34.507Z,54.13
2024-04-11T21:56:15.817Z,54.30
2024-04-11T21:59:24.210Z,54.37
2024-04-11T22:01:59.390Z,54.42
2024-04-11T22:05:44.209Z,54.39
2024-04-11T22:08:14.325Z,54.59
2024-04-11T22:10:45.174Z,54.28
2024-04-11T22:13:26.736Z,54.68
2024-04-11T22:16:23.162Z,54.48
2024-04-11T22:19:00.295Z,54.48
2024-04-11T22:21:30.554Z,54.88
2024-04-11T22:24:38.211Z,54.88
2024-04-11T22:27:51.265Z,54.99
2024-04-11T22:30:27.075Z,55.01
2024-04-11T22:33:51.750Z,55.25
2024-04-11T22:36:35.928Z,55.31
2024-04-11T22:43:05.826Z,55.25
2024-04-11T22:45:41.317Z,55.59
2024-04-11T22:48:45.719Z,55.28
2024-04-11T22:51:56.435Z,55.30
2024-04-11T23:01:20.882Z,55.79
2024-04-11T23:04:12.330Z,55.90
2024-04-11T23:06:57.165Z,55.71
2024-04-11T23:09:24.414Z,55.64
2024-04-11T23:11:53.579Z,55.90
2024-04-11T23:14:20.691Z,55.88
2024-04-11T23:16:52.014Z,55.85
2024-04-11T23:19:58.403Z,55.85
2024-04-11T23:22:46.385Z,56.24
2024-04-11T23:25:13.913Z,56.04
2024-04-11T23:27:42.146Z,56.20
2024-04-11T23:30:09.841Z,55.92
2024-04-11T23:32:40.570Z,56.22
2024-04-11T23:40:02.697Z,56.54
2024-04-11T23:42:42.673Z,56.88
2024-04-11T23:45:26.713Z,56.89
2024-04-11T23:47:57.509Z,56.79
2024-04-11T23:51:05.290Z,56.89
2024-04-11T23:53:36.626Z,57.30
2024-04-11T23:56:06.226Z,57.21
2024-04-11T23:58:44.303Z,57.30
